sensor_id;sensor_type;location;lat;lon;timestamp;pressure;altitude;pressure_sealevel;temperature;humidity
52319;BME280;38258;51.148;14.068;2023-02-16T00:00:29;99173.78;;;-1.59;100.00
52319;BME280;38258;51.148;14.068;2023-02-16T00:02:56;99161.03;;;-1.83;100.00
52319;BME280;38258;51.148;14.068;2023-02-16T00:05:25;99172.78;;;-1.64;100.00
52319;BME280;38258;51.148;14.068;2023-02-16T00:07:53;99173.06;;;-1.55;100.00
52319;BME280;38258;51.148;14.068;2023-02-16T00:10:20;99147.47;;;-1.79;100.00
52319;BME280;38258;51.148;14.068;2023-02-16T00:12:48;99168.50;;;-1.64;100.00
52319;BME280;38258;51.148;14.068;2023-02-16T00:15:33;99174.47;;;-1.65;100.00
52319;BME280;38258;51.148;14.068;2023-02-16T00:18:01;99171.56;;;-1.74;100.00
52319;BME280;38258;51.148;14.068;2023-02-16T00:20:30;99172.47;;;-1.74;100.00
52319;BME280;38258;51.148;14.068;2023-02-16T00:22:57;99166.59;;;-1.69;100.00
52319;BME280;38258;51.148;14.068;2023-02-16T00:25:24;99166.41;;;-1.76;100.00
52319;BME280;38258;51.148;14.068;2023-02-16T00:27:52;99166.44;;;-1.48;100.00
52319;BME280;38258;51.148;14.068;2023-02-16T00:30:20;99166.03;;;-1.61;100.00
52319;BME280;38258;51.148;14.068;2023-02-16T00:32:49;99168.31;;;-1.70;100.00
52319;BME280;38258;51.148;14.068;2023-02-16T00:35:16;99180.59;;;-1.60;100.00
52319;BME280;38258;51.148;14.068;2023-02-16T00:37:44;99181.06;;;-1.72;100.00
52319;BME280;38258;51.148;14.068;2023-02-16T00:40:12;99177.69;;;-1.71;100.00
52319;BME280;38258;51.148;14.068;2023-02-16T00:42:41;99169.75;;;-1.52;100.00
52319;BME280;38258;51.148;14.068;2023-02-16T00:45:14;99172.16;;;-1.57;100.00
52319;BME280;38258;51.148;14.068;2023-02-16T00:47:43;99174.53;;;-1.63;100.00
52319;BME280;38258;51.148;14.068;2023-02-16T00:50:15;99169.84;;;-1.75;100.00
52319;BME280;38258;51.148;14.068;2023-02-16T00:52:45;99176.75;;;-1.99;100.00
52319;BME280;38258;51.148;14.068;2023-02-16T00:55:16;99178.31;;;-1.78;100.00
52319;BME280;38258;51.148;14.068;2023-02-16T00:57:46;99165.53;;;-1.76;100.00
52319;BME280;38258;51.148;14.068;2023-02-16T01:00:18;99153.78;;;-1.69;100.00
52319;BME280;38258;51.148;14.068;2023-02-16T01:02:48;99157.41;;;-1.63;100.00
52319;BME280;38258;51.148;14.068;2023-02-16T01:05:18;99151.28;;;-1.68;100.00
52319;BME280;38258;51.148;14.068;2023-02-16T01:07:45;99157.41;;;-1.63;100.00
52319;BME280;38258;51.148;14.068;2023-02-16T01:10:32;99144.19;;;-1.75;100.00
52319;BME280;38258;51.148;14.068;2023-02-16T01:13:17;99121.41;;;-1.92;100.00
52319;BME280;38258;51.148;14.068;2023-02-16T01:18:36;99158.00;;;-1.72;100.00
52319;BME280;38258;51.148;14.068;2023-02-16T01:21:03;99141.69;;;-1.46;100.00
52319;BME280;38258;51.148;14.068;2023-02-16T01:23:30;99147.13;;;-1.64;100.00
52319;BME280;38258;51.148;14.068;2023-02-16T01:25:57;99150.38;;;-1.68;100.00
52319;BME280;38258;51.148;14.068;2023-02-16T01:28:25;99135.66;;;-1.74;100.00
52319;BME280;38258;51.148;14.068;2023-02-16T01:30:52;99150.38;;;-1.68;100.00
52319;BME280;38258;51.148;14.068;2023-02-16T01:33:19;99149.16;;;-1.80;100.00
52319;BME280;38258;51.148;14.068;2023-02-16T01:35:48;99146.00;;;-1.73;100.00
52319;BME280;38258;51.148;14.068;2023-02-16T01:38:18;99150.22;;;-1.73;100.00
52319;BME280;38258;51.148;14.068;2023-02-16T01:40:51;99152.53;;;-1.81;100.00
52319;BME280;38258;51.148;14.068;2023-02-16T01:43:21;99145.47;;;-1.88;100.00
52319;BME280;38258;51.148;14.068;2023-02-16T01:45:54;99143.91;;;-1.85;100.00
52319;BME280;38258;51.148;14.068;2023-02-16T01:48:26;99145.56;;;-1.85;100.00
52319;BME280;38258;51.148;14.068;2023-02-16T01:50:59;99146.31;;;-1.89;100.00
52319;BME280;38258;51.148;14.068;2023-02-16T01:53:30;99143.44;;;-1.73;100.00
52319;BME280;38258;51.148;14.068;2023-02-16T01:56:02;99133.25;;;-1.95;100.00
52319;BME280;38258;51.148;14.068;2023-02-16T01:58:35;99123.50;;;-1.80;100.00
52319;BME280;38258;51.148;14.068;2023-02-16T02:01:35;99133.50;;;-1.88;100.00
52319;BME280;38258;51.148;14.068;2023-02-16T02:04:10;99125.28;;;-1.79;100.00
52319;BME280;38258;51.148;14.068;2023-02-16T02:06:56;99120.94;;;-1.80;100.00
52319;BME280;38258;51.148;14.068;2023-02-16T02:09:28;99121.63;;;-1.86;100.00
52319;BME280;38258;51.148;14.068;2023-02-16T02:12:05;99102.53;;;-1.94;100.00
52319;BME280;38258;51.148;14.068;2023-02-16T02:14:37;99133.75;;;-1.80;100.00
52319;BME280;38258;51.148;14.068;2023-02-16T02:17:10;99123.41;;;-1.83;100.00
52319;BME280;38258;51.148;14.068;2023-02-16T02:19:47;99119.06;;;-1.86;100.00
52319;BME280;38258;51.148;14.068;2023-02-16T02:25:43;99121.16;;;-2.00;100.00
52319;BME280;38258;51.148;14.068;2023-02-16T02:28:18;99131.31;;;-1.77;100.00
52319;BME280;38258;51.148;14.068;2023-02-16T02:30:54;99121.94;;;-1.76;100.00
52319;BME280;38258;51.148;14.068;2023-02-16T02:33:37;99118.91;;;-1.64;100.00
52319;BME280;38258;51.148;14.068;2023-02-16T02:36:18;99123.56;;;-1.52;100.00
52319;BME280;38258;51.148;14.068;2023-02-16T02:38:56;99119.69;;;-1.65;100.00
52319;BME280;38258;51.148;14.068;2023-02-16T02:41:32;99122.97;;;-1.71;100.00
52319;BME280;38258;51.148;14.068;2023-02-16T02:44:23;99111.25;;;-1.63;100.00
52319;BME280;38258;51.148;14.068;2023-02-16T02:46:52;99115.47;;;-1.65;100.00
52319;BME280;38258;51.148;14.068;2023-02-16T02:49:19;99109.25;;;-1.72;100.00
52319;BME280;38258;51.148;14.068;2023-02-16T02:51:46;99102.13;;;-1.80;100.00
52319;BME280;38258;51.148;14.068;2023-02-16T02:54:16;99106.09;;;-1.90;100.00
52319;BME280;38258;51.148;14.068;2023-02-16T02:57:08;99113.38;;;-1.77;100.00
52319;BME280;38258;51.148;14.068;2023-02-16T02:59:59;99115.53;;;-1.89;100.00
52319;BME280;38258;51.148;14.068;2023-02-16T03:02:44;99109.50;;;-1.90;100.00
52319;BME280;38258;51.148;14.068;2023-02-16T03:05:15;99107.63;;;-1.95;100.00
52319;BME280;38258;51.148;14.068;2023-02-16T03:07:45;99106.78;;;-1.94;100.00
52319;BME280;38258;51.148;14.068;2023-02-16T03:10:16;99107.78;;;-1.91;100.00
52319;BME280;38258;51.148;14.068;2023-02-16T03:13:03;99110.25;;;-1.94;100.00
52319;BME280;38258;51.148;14.068;2023-02-16T03:15:34;99102.28;;;-2.02;100.00
52319;BME280;38258;51.148;14.068;2023-02-16T03:18:02;99108.34;;;-2.00;100.00
52319;BME280;38258;51.148;14.068;2023-02-16T03:20:48;99110.19;;;-1.95;100.00
52319;BME280;38258;51.148;14.068;2023-02-16T03:23:33;99112.66;;;-1.99;100.00
52319;BME280;38258;51.148;14.068;2023-02-16T03:26:18;99119.84;;;-1.88;100.00
52319;BME280;38258;51.148;14.068;2023-02-16T03:29:03;99124.19;;;-2.11;100.00
52319;BME280;38258;51.148;14.068;2023-02-16T03:31:48;99120.25;;;-2.02;100.00
52319;BME280;38258;51.148;14.068;2023-02-16T03:34:17;99121.06;;;-2.03;100.00
52319;BME280;38258;51.148;14.068;2023-02-16T03:36:46;99102.78;;;-2.12;100.00
52319;BME280;38258;51.148;14.068;2023-02-16T03:39:14;99110.56;;;-2.09;100.00
52319;BME280;38258;51.148;14.068;2023-02-16T03:41:43;99120.75;;;-2.12;100.00
52319;BME280;38258;51.148;14.068;2023-02-16T03:44:11;99123.94;;;-2.19;100.00
52319;BME280;38258;51.148;14.068;2023-02-16T03:46:38;99120.28;;;-2.26;100.00
52319;BME280;38258;51.148;14.068;2023-02-16T03:49:06;99129.34;;;-2.10;100.00
52319;BME280;38258;51.148;14.068;2023-02-16T03:51:33;99119.66;;;-2.19;100.00
52319;BME280;38258;51.148;14.068;2023-02-16T03:54:00;99129.44;;;-2.33;100.00
52319;BME280;38258;51.148;14.068;2023-02-16T03:56:27;99128.50;;;-2.35;100.00
52319;BME280;38258;51.148;14.068;2023-02-16T03:58:53;99129.56;;;-2.52;100.00
52319;BME280;38258;51.148;14.068;2023-02-16T04:01:20;99126.63;;;-2.39;100.00
52319;BME280;38258;51.148;14.068;2023-02-16T04:03:57;99123.59;;;-2.29;100.00
52319;BME280;38258;51.148;14.068;2023-02-16T04:06:25;99117.75;;;-2.24;100.00
52319;BME280;38258;51.148;14.068;2023-02-16T04:08:52;99120.69;;;-2.38;100.00
52319;BME280;38258;51.148;14.068;2023-02-16T04:11:19;99112.19;;;-2.37;100.00
52319;BME280;38258;51.148;14.068;2023-02-16T04:14:03;99119.63;;;-2.20;100.00
52319;BME280;38258;51.148;14.068;2023-02-16T04:16:29;99119.66;;;-2.19;100.00
52319;BME280;38258;51.148;14.068;2023-02-16T04:18:56;99111.44;;;-2.34;100.00
52319;BME280;38258;51.148;14.068;2023-02-16T04:21:24;99121.41;;;-2.18;100.00
52319;BME280;38258;51.148;14.068;2023-02-16T04:23:51;99121.63;;;-2.11;100.00
52319;BME280;38258;51.148;14.068;2023-02-16T04:26:18;99107.63;;;-2.21;100.00
52319;BME280;38258;51.148;14.068;2023-02-16T04:28:45;99110.22;;;-2.20;100.00
52319;BME280;38258;51.148;14.068;2023-02-16T04:31:11;99114.50;;;-2.20;100.00
52319;BME280;38258;51.148;14.068;2023-02-16T04:33:38;99103.69;;;-2.11;100.00
52319;BME280;38258;51.148;14.068;2023-02-16T04:36:06;99107.00;;;-2.14;100.00
52319;BME280;38258;51.148;14.068;2023-02-16T04:38:34;99105.41;;;-2.10;100.00
52319;BME280;38258;51.148;14.068;2023-02-16T04:41:01;99102.88;;;-2.09;100.00
52319;BME280;38258;51.148;14.068;2023-02-16T04:43:28;99104.66;;;-2.08;100.00
52319;BME280;38258;51.148;14.068;2023-02-16T04:45:55;99103.72;;;-2.10;100.00
52319;BME280;38258;51.148;14.068;2023-02-16T04:48:21;99104.53;;;-2.11;100.00
52319;BME280;38258;51.148;14.068;2023-02-16T04:50:49;99107.69;;;-1.94;100.00
52319;BME280;38258;51.148;14.068;2023-02-16T04:53:16;99112.44;;;-2.05;100.00
52319;BME280;38258;51.148;14.068;2023-02-16T04:55:46;99109.56;;;-2.14;100.00
52319;BME280;38258;51.148;14.068;2023-02-16T04:58:13;99110.31;;;-1.92;100.00
52319;BME280;38258;51.148;14.068;2023-02-16T05:00:40;99111.31;;;-2.13;100.00
52319;BME280;38258;51.148;14.068;2023-02-16T05:03:07;99111.38;;;-2.11;100.00
52319;BME280;38258;51.148;14.068;2023-02-16T05:05:34;99107.50;;;-2.24;100.00
52319;BME280;38258;51.148;14.068;2023-02-16T05:08:01;99096.19;;;-2.56;100.00
52319;BME280;38258;51.148;14.068;2023-02-16T05:10:28;99116.03;;;-2.50;100.00
52319;BME280;38258;51.148;14.068;2023-02-16T05:12:56;99115.75;;;-2.58;100.00
52319;BME280;38258;51.148;14.068;2023-02-16T05:15:41;99124.47;;;-2.28;100.00
52319;BME280;38258;51.148;14.068;2023-02-16T05:18:07;99120.09;;;-2.31;100.00
52319;BME280;38258;51.148;14.068;2023-02-16T05:20:34;99129.72;;;-2.25;100.00
52319;BME280;38258;51.148;14.068;2023-02-16T05:23:19;99120.94;;;-2.56;100.00
52319;BME280;38258;51.148;14.068;2023-02-16T05:25:45;99124.25;;;-2.59;100.00
52319;BME280;38258;51.148;14.068;2023-02-16T05:28:14;99123.06;;;-2.91;100.00
52319;BME280;38258;51.148;14.068;2023-02-16T05:30:40;99120.66;;;-2.87;100.00
52319;BME280;38258;51.148;14.068;2023-02-16T05:33:07;99119.31;;;-2.77;100.00
52319;BME280;38258;51.148;14.068;2023-02-16T05:35:34;99116.09;;;-2.48;100.00
52319;BME280;38258;51.148;14.068;2023-02-16T05:38:01;99123.06;;;-2.91;100.00
52319;BME280;38258;51.148;14.068;2023-02-16T05:40:28;99118.69;;;-2.71;100.00
52319;BME280;38258;51.148;14.068;2023-02-16T05:42:54;99125.09;;;-2.82;100.00
52319;BME280;38258;51.148;14.068;2023-02-16T05:45:23;99121.13;;;-2.74;100.00
52319;BME280;38258;51.148;14.068;2023-02-16T05:47:49;99121.41;;;-2.66;100.00
52319;BME280;38258;51.148;14.068;2023-02-16T05:50:17;99126.16;;;-2.29;100.00
52319;BME280;38258;51.148;14.068;2023-02-16T05:52:44;99128.50;;;-2.35;100.00
52319;BME280;38258;51.148;14.068;2023-02-16T05:55:11;99140.16;;;-2.43;100.00
52319;BME280;38258;51.148;14.068;2023-02-16T05:57:38;99142.16;;;-2.36;100.00
52319;BME280;38258;51.148;14.068;2023-02-16T06:00:05;99128.44;;;-2.36;100.00
52319;BME280;38258;51.148;14.068;2023-02-16T06:02:34;99140.53;;;-2.57;100.00
52319;BME280;38258;51.148;14.068;2023-02-16T06:05:01;99135.03;;;-2.67;100.00
52319;BME280;38258;51.148;14.068;2023-02-16T06:07:28;99137.13;;;-2.57;100.00
52319;BME280;38258;51.148;14.068;2023-02-16T06:09:54;99138.03;;;-2.79;100.00
52319;BME280;38258;51.148;14.068;2023-02-16T06:12:21;99143.81;;;-2.84;100.00
52319;BME280;38258;51.148;14.068;2023-02-16T06:14:48;99128.56;;;-2.80;100.00
52319;BME280;38258;51.148;14.068;2023-02-16T06:17:15;99131.41;;;-2.73;100.00
52319;BME280;38258;51.148;14.068;2023-02-16T06:19:43;99139.50;;;-2.62;100.00
52319;BME280;38258;51.148;14.068;2023-02-16T06:22:10;99135.97;;;-2.65;100.00
52319;BME280;38258;51.148;14.068;2023-02-16T06:24:36;99135.03;;;-2.67;100.00
52319;BME280;38258;51.148;14.068;2023-02-16T06:27:03;99129.94;;;-2.66;100.00
52319;BME280;38258;51.148;14.068;2023-02-16T06:29:30;99121.63;;;-2.60;100.00
52319;BME280;38258;51.148;14.068;2023-02-16T06:31:57;99137.78;;;-2.63;100.00
52319;BME280;38258;51.148;14.068;2023-02-16T06:34:24;99148.88;;;-2.38;100.00
52319;BME280;38258;51.148;14.068;2023-02-16T06:36:53;99142.28;;;-2.56;100.00
52319;BME280;38258;51.148;14.068;2023-02-16T06:39:19;99144.09;;;-2.53;100.00
52319;BME280;38258;51.148;14.068;2023-02-16T06:41:46;99141.88;;;-2.44;100.00
52319;BME280;38258;51.148;14.068;2023-02-16T06:44:14;99144.38;;;-2.45;100.00
52319;BME280;38258;51.148;14.068;2023-02-16T06:46:43;99140.72;;;-2.52;100.00
52319;BME280;38258;51.148;14.068;2023-02-16T06:49:15;99135.78;;;-2.46;100.00
52319;BME280;38258;51.148;14.068;2023-02-16T06:51:42;99144.75;;;-2.34;100.00
52319;BME280;38258;51.148;14.068;2023-02-16T06:54:11;99136.75;;;-2.19;100.00
52319;BME280;38258;51.148;14.068;2023-02-16T06:56:38;99127.91;;;-2.28;100.00
52319;BME280;38258;51.148;14.068;2023-02-16T06:59:05;99140.25;;;-2.16;100.00
52319;BME280;38258;51.148;14.068;2023-02-16T07:01:33;99142.06;;;-2.13;100.00
52319;BME280;38258;51.148;14.068;2023-02-16T07:04:00;99132.31;;;-1.99;100.00
52319;BME280;38258;51.148;14.068;2023-02-16T07:06:27;99144.03;;;-2.06;100.00
52319;BME280;38258;51.148;14.068;2023-02-16T07:08:55;99141.94;;;-1.92;100.00
52319;BME280;38258;51.148;14.068;2023-02-16T07:11:23;99129.41;;;-2.08;100.00
52319;BME280;38258;51.148;14.068;2023-02-16T07:13:50;99139.84;;;-2.04;100.00
52319;BME280;38258;51.148;14.068;2023-02-16T07:16:17;99134.56;;;-1.82;100.00
52319;BME280;38258;51.148;14.068;2023-02-16T07:18:44;99127.44;;;-1.91;100.00
52319;BME280;38258;51.148;14.068;2023-02-16T07:21:12;99136.81;;;-1.92;100.00
52319;BME280;38258;51.148;14.068;2023-02-16T07:23:39;99130.44;;;-1.77;100.00
52319;BME280;38258;51.148;14.068;2023-02-16T07:26:06;99132.75;;;-1.85;100.00
52319;BME280;38258;51.148;14.068;2023-02-16T07:28:34;99134.84;;;-1.73;100.00
52319;BME280;38258;51.148;14.068;2023-02-16T07:31:05;99127.78;;;-1.54;100.00
52319;BME280;38258;51.148;14.068;2023-02-16T07:33:33;99123.34;;;-1.59;100.00
52319;BME280;38258;51.148;14.068;2023-02-16T07:36:00;99125.00;;;-1.61;100.00
52319;BME280;38258;51.148;14.068;2023-02-16T07:38:27;99121.72;;;-1.57;100.00
52319;BME280;38258;51.148;14.068;2023-02-16T07:40:55;99121.38;;;-1.40;100.00
52319;BME280;38258;51.148;14.068;2023-02-16T07:43:23;99121.19;;;-1.19;100.00
52319;BME280;38258;51.148;14.068;2023-02-16T07:45:51;99120.25;;;-1.21;100.00
52319;BME280;38258;51.148;14.068;2023-02-16T07:48:19;99103.34;;;-1.42;100.00
52319;BME280;38258;51.148;14.068;2023-02-16T07:50:45;99122.94;;;-1.16;100.00
52319;BME280;38258;51.148;14.068;2023-02-16T07:53:13;99125.47;;;-1.18;100.00
52319;BME280;38258;51.148;14.068;2023-02-16T07:55:40;99119.38;;;-1.21;100.00
52319;BME280;38258;51.148;14.068;2023-02-16T07:58:07;99128.69;;;-0.96;100.00
52319;BME280;38258;51.148;14.068;2023-02-16T08:00:35;99124.13;;;-0.77;100.00
52319;BME280;38258;51.148;14.068;2023-02-16T08:03:03;99131.44;;;-0.61;100.00
52319;BME280;38258;51.148;14.068;2023-02-16T08:05:30;99140.19;;;-0.54;100.00
52319;BME280;38258;51.148;14.068;2023-02-16T08:07:57;99141.25;;;-0.46;100.00
52319;BME280;38258;51.148;14.068;2023-02-16T08:10:24;99141.09;;;-0.21;100.00
52319;BME280;38258;51.148;14.068;2023-02-16T08:12:51;99143.47;;;-0.27;100.00
52319;BME280;38258;51.148;14.068;2023-02-16T08:15:17;99147.63;;;-0.33;100.00
52319;BME280;38258;51.148;14.068;2023-02-16T08:17:44;99147.78;;;-0.26;100.00
52319;BME280;38258;51.148;14.068;2023-02-16T08:20:13;99144.66;;;-0.15;100.00
52319;BME280;38258;51.148;14.068;2023-02-16T08:22:40;99146.88;;;0.04;100.00
52319;BME280;38258;51.148;14.068;2023-02-16T08:25:08;99145.66;;;0.23;100.00
52319;BME280;38258;51.148;14.068;2023-02-16T08:27:36;99152.38;;;0.18;100.00
52319;BME280;38258;51.148;14.068;2023-02-16T08:30:03;99154.88;;;0.50;100.00
52319;BME280;38258;51.148;14.068;2023-02-16T08:32:30;99144.00;;;0.62;100.00
52319;BME280;38258;51.148;14.068;2023-02-16T08:34:57;99143.72;;;0.86;100.00
52319;BME280;38258;51.148;14.068;2023-02-16T08:37:26;99145.84;;;1.04;100.00
52319;BME280;38258;51.148;14.068;2023-02-16T08:39:53;99137.88;;;1.33;100.00
52319;BME280;38258;51.148;14.068;2023-02-16T08:42:20;99135.38;;;1.81;100.00
52319;BME280;38258;51.148;14.068;2023-02-16T08:44:47;99136.47;;;1.49;100.00
52319;BME280;38258;51.148;14.068;2023-02-16T08:47:14;99133.03;;;1.49;100.00
52319;BME280;38258;51.148;14.068;2023-02-16T08:49:44;99129.91;;;2.10;100.00
52319;BME280;38258;51.148;14.068;2023-02-16T08:52:11;99124.59;;;2.54;100.00
52319;BME280;38258;51.148;14.068;2023-02-16T08:54:39;99121.78;;;2.96;100.00
52319;BME280;38258;51.148;14.068;2023-02-16T08:57:07;99122.50;;;2.86;100.00
52319;BME280;38258;51.148;14.068;2023-02-16T08:59:34;99133.38;;;3.26;100.00
52319;BME280;38258;51.148;14.068;2023-02-16T09:02:01;99121.25;;;3.20;100.00
52319;BME280;38258;51.148;14.068;2023-02-16T09:04:28;99112.91;;;3.45;100.00
52319;BME280;38258;51.148;14.068;2023-02-16T09:06:55;99118.53;;;3.84;100.00
52319;BME280;38258;51.148;14.068;2023-02-16T09:09:24;99119.47;;;3.93;100.00
52319;BME280;38258;51.148;14.068;2023-02-16T09:11:52;99119.78;;;4.23;100.00
52319;BME280;38258;51.148;14.068;2023-02-16T09:14:19;99115.69;;;4.50;100.00
52319;BME280;38258;51.148;14.068;2023-02-16T09:16:47;99116.69;;;4.67;100.00
52319;BME280;38258;51.148;14.068;2023-02-16T09:19:16;99112.66;;;5.16;100.00
52319;BME280;38258;51.148;14.068;2023-02-16T09:21:44;99115.91;;;4.79;100.00
52319;BME280;38258;51.148;14.068;2023-02-16T09:24:11;99113.69;;;4.16;100.00
52319;BME280;38258;51.148;14.068;2023-02-16T09:26:38;99121.78;;;4.58;100.00
52319;BME280;38258;51.148;14.068;2023-02-16T09:29:09;99115.00;;;4.74;100.00
52319;BME280;38258;51.148;14.068;2023-02-16T09:31:37;99110.66;;;4.67;100.00
52319;BME280;38258;51.148;14.068;2023-02-16T09:34:07;99098.94;;;5.42;100.00
52319;BME280;38258;51.148;14.068;2023-02-16T09:36:36;99111.19;;;5.88;100.00
52319;BME280;38258;51.148;14.068;2023-02-16T09:39:03;99112.94;;;5.86;100.00
52319;BME280;38258;51.148;14.068;2023-02-16T09:44:38;99116.34;;;5.70;100.00
52319;BME280;38258;51.148;14.068;2023-02-16T09:47:14;99098.31;;;6.35;100.00
52319;BME280;38258;51.148;14.068;2023-02-16T09:49:43;99099.88;;;7.37;100.00
52319;BME280;38258;51.148;14.068;2023-02-16T09:52:17;99095.63;;;7.13;100.00
52319;BME280;38258;51.148;14.068;2023-02-16T09:54:48;99094.63;;;7.43;98.86
52319;BME280;38258;51.148;14.068;2023-02-16T09:57:22;99082.56;;;7.25;98.25
52319;BME280;38258;51.148;14.068;2023-02-16T10:00:00;99090.22;;;7.55;97.15
52319;BME280;38258;51.148;14.068;2023-02-16T10:02:39;99095.72;;;6.54;99.95
52319;BME280;38258;51.148;14.068;2023-02-16T10:05:17;99087.03;;;6.59;100.00
52319;BME280;38258;51.148;14.068;2023-02-16T10:07:58;99092.06;;;7.28;100.00
52319;BME280;38258;51.148;14.068;2023-02-16T10:10:32;99086.94;;;7.03;100.00
52319;BME280;38258;51.148;14.068;2023-02-16T10:13:03;99097.22;;;7.46;98.56
52319;BME280;38258;51.148;14.068;2023-02-16T10:15:36;99094.69;;;7.25;96.76
52319;BME280;38258;51.148;14.068;2023-02-16T10:18:11;99094.75;;;7.14;100.00
52319;BME280;38258;51.148;14.068;2023-02-16T10:20:42;99100.03;;;6.78;99.41
52319;BME280;38258;51.148;14.068;2023-02-16T10:23:18;99102.63;;;6.17;100.00
52319;BME280;38258;51.148;14.068;2023-02-16T10:25:52;99103.50;;;6.68;100.00
52319;BME280;38258;51.148;14.068;2023-02-16T10:28:31;99109.56;;;6.71;100.00
52319;BME280;38258;51.148;14.068;2023-02-16T10:31:12;99098.31;;;6.60;100.00
52319;BME280;38258;51.148;14.068;2023-02-16T10:33:41;99098.16;;;7.27;100.00
52319;BME280;38258;51.148;14.068;2023-02-16T10:36:15;99098.25;;;6.97;100.00
52319;BME280;38258;51.148;14.068;2023-02-16T10:38:53;99085.88;;;7.58;98.08
52319;BME280;38258;51.148;14.068;2023-02-16T10:41:30;99097.06;;;7.74;95.51
52319;BME280;38258;51.148;14.068;2023-02-16T10:44:02;99102.38;;;7.56;96.51
52319;BME280;38258;51.148;14.068;2023-02-16T10:46:35;99091.88;;;7.71;95.31
52319;BME280;38258;51.148;14.068;2023-02-16T10:49:02;99089.25;;;7.77;95.93
52319;BME280;38258;51.148;14.068;2023-02-16T10:51:32;99091.69;;;8.04;96.02
52319;BME280;38258;51.148;14.068;2023-02-16T10:54:04;99084.63;;;8.21;95.25
52319;BME280;38258;51.148;14.068;2023-02-16T10:56:47;99084.31;;;8.62;88.79
52319;BME280;38258;51.148;14.068;2023-02-16T10:59:18;99075.56;;;8.69;85.01
52319;BME280;38258;51.148;14.068;2023-02-16T11:01:50;99079.31;;;8.34;87.58
52319;BME280;38258;51.148;14.068;2023-02-16T11:04:36;99079.59;;;9.01;84.04
52319;BME280;38258;51.148;14.068;2023-02-16T11:07:05;99072.19;;;9.38;82.18
52319;BME280;38258;51.148;14.068;2023-02-16T11:09:33;99077.13;;;8.87;80.44
52319;BME280;38258;51.148;14.068;2023-02-16T11:12:01;99074.25;;;9.14;80.01
52319;BME280;38258;51.148;14.068;2023-02-16T11:14:29;99071.16;;;8.73;87.12
52319;BME280;38258;51.148;14.068;2023-02-16T11:17:07;99076.16;;;8.98;80.85
52319;BME280;38258;51.148;14.068;2023-02-16T11:19:38;99072.13;;;8.64;84.94
52319;BME280;38258;51.148;14.068;2023-02-16T11:22:06;99063.94;;;9.01;80.82
52319;BME280;38258;51.148;14.068;2023-02-16T11:24:35;99068.22;;;9.05;80.66
52319;BME280;38258;51.148;14.068;2023-02-16T11:27:05;99059.03;;;8.70;83.66
52319;BME280;38258;51.148;14.068;2023-02-16T11:29:33;99069.53;;;8.66;84.79
52319;BME280;38258;51.148;14.068;2023-02-16T11:32:07;99064.41;;;8.52;82.78
52319;BME280;38258;51.148;14.068;2023-02-16T11:34:36;99062.38;;;8.83;83.25
52319;BME280;38258;51.148;14.068;2023-02-16T11:37:11;99061.31;;;9.01;81.16
52319;BME280;38258;51.148;14.068;2023-02-16T11:39:40;99061.38;;;8.97;83.05
52319;BME280;38258;51.148;14.068;2023-02-16T11:42:20;99056.56;;;8.58;84.62
52319;BME280;38258;51.148;14.068;2023-02-16T11:44:51;99058.09;;;8.77;82.92
52319;BME280;38258;51.148;14.068;2023-02-16T11:47:25;99050.66;;;9.20;82.12
52319;BME280;38258;51.148;14.068;2023-02-16T11:50:12;99035.78;;;8.50;87.60
52319;BME280;38258;51.148;14.068;2023-02-16T11:52:43;99049.38;;;8.79;86.35
52319;BME280;38258;51.148;14.068;2023-02-16T11:55:19;99040.63;;;8.84;87.68
52319;BME280;38258;51.148;14.068;2023-02-16T11:57:46;99034.75;;;9.39;83.31
52319;BME280;38258;51.148;14.068;2023-02-16T12:00:15;99043.94;;;9.68;82.35
52319;BME280;38258;51.148;14.068;2023-02-16T12:03:18;99029.25;;;10.17;77.04
52319;BME280;38258;51.148;14.068;2023-02-16T12:06:10;99033.66;;;10.16;76.92
52319;BME280;38258;51.148;14.068;2023-02-16T12:08:57;99034.34;;;10.26;77.02
52319;BME280;38258;51.148;14.068;2023-02-16T12:11:37;99030.00;;;10.25;75.81
52319;BME280;38258;51.148;14.068;2023-02-16T12:14:34;99031.66;;;9.74;81.41
52319;BME280;38258;51.148;14.068;2023-02-16T12:17:17;99032.72;;;9.62;83.70
52319;BME280;38258;51.148;14.068;2023-02-16T12:19:56;99032.72;;;11.16;74.16
52319;BME280;38258;51.148;14.068;2023-02-16T12:22:33;99036.50;;;10.56;75.29
52319;BME280;38258;51.148;14.068;2023-02-16T12:25:16;99014.72;;;11.01;77.33
52319;BME280;38258;51.148;14.068;2023-02-16T12:27:50;99006.78;;;10.60;74.54
52319;BME280;38258;51.148;14.068;2023-02-16T12:30:28;99009.69;;;10.92;76.56
52319;BME280;38258;51.148;14.068;2023-02-16T12:33:14;99006.22;;;10.42;77.08
52319;BME280;38258;51.148;14.068;2023-02-16T12:36:00;98999.81;;;11.05;76.84
52319;BME280;38258;51.148;14.068;2023-02-16T12:38:39;99001.00;;;10.42;77.45
52319;BME280;38258;51.148;14.068;2023-02-16T12:41:15;99006.34;;;10.33;76.88
52319;BME280;38258;51.148;14.068;2023-02-16T12:43:49;99013.22;;;10.89;74.25
52319;BME280;38258;51.148;14.068;2023-02-16T12:46:21;99012.09;;;11.01;72.35
52319;BME280;38258;51.148;14.068;2023-02-16T12:48:53;99017.97;;;11.14;73.55
52319;BME280;38258;51.148;14.068;2023-02-16T12:51:26;99011.44;;;10.89;73.78
52319;BME280;38258;51.148;14.068;2023-02-16T12:53:58;99006.25;;;10.88;72.78
52319;BME280;38258;51.148;14.068;2023-02-16T12:56:30;99003.44;;;10.52;73.71
52319;BME280;38258;51.148;14.068;2023-02-16T12:59:11;99007.22;;;10.33;76.28
52319;BME280;38258;51.148;14.068;2023-02-16T13:01:41;98993.59;;;10.14;81.87
52319;BME280;38258;51.148;14.068;2023-02-16T13:04:17;98991.56;;;9.79;79.91
52319;BME280;38258;51.148;14.068;2023-02-16T13:06:50;98999.22;;;9.91;80.52
52319;BME280;38258;51.148;14.068;2023-02-16T13:09:26;98990.19;;;10.09;76.52
52319;BME280;38258;51.148;14.068;2023-02-16T13:12:01;98988.47;;;10.08;78.38
52319;BME280;38258;51.148;14.068;2023-02-16T13:14:33;98984.53;;;10.34;76.67